createdAt,value
2023-09-18T00:01:03.990Z,3.10
2023-09-18T00:03:31.246Z,3.38
2023-09-18T00:05:58.498Z,3.35
2023-09-18T00:08:25.816Z,3.20
2023-09-18T00:10:56.858Z,3.80
2023-09-18T00:13:24.897Z,3.58
2023-09-18T00:15:56.619Z,2.88
2023-09-18T00:18:23.901Z,3.67
2023-09-18T00:20:53.038Z,3.58
2023-09-18T00:23:20.357Z,3.10
2023-09-18T00:25:47.624Z,3.00
2023-09-18T00:28:14.813Z,3.20
2023-09-18T00:30:49.880Z,3.25
2023-09-18T00:33:17.389Z,3.10
2023-09-18T00:35:51.540Z,3.47
2023-09-18T00:38:18.984Z,3.08
2023-09-18T00:40:46.329Z,3.38
2023-09-18T00:43:13.821Z,3.38
2023-09-18T00:45:43.374Z,3.25
2023-09-18T00:48:11.074Z,3.30
2023-09-18T00:50:39.292Z,3.20
2023-09-18T00:53:09.635Z,3.33
2023-09-18T00:55:38.476Z,3.35
2023-09-18T00:58:06.909Z,3.15
2023-09-18T01:00:34.129Z,3.25
2023-09-18T01:03:03.207Z,3.50
2023-09-18T01:05:34.553Z,2.90
2023-09-18T01:08:01.908Z,3.25
2023-09-18T01:10:37.910Z,2.78
2023-09-18T01:13:14.493Z,3.00
2023-09-18T01:15:47.644Z,3.13
2023-09-18T01:18:15.005Z,2.75
2023-09-18T01:20:42.210Z,3.08
2023-09-18T01:23:10.070Z,3.13
2023-09-18T01:25:37.296Z,3.00
2023-09-18T01:28:04.611Z,3.25
2023-09-18T01:30:31.832Z,3.08
2023-09-18T01:32:59.964Z,2.92
2023-09-18T01:35:30.980Z,2.73
2023-09-18T01:37:59.198Z,2.70
2023-09-18T01:40:26.758Z,3.00
2023-09-18T01:42:54.384Z,2.97
2023-09-18T01:45:21.581Z,3.13
2023-09-18T01:47:48.876Z,3.17
2023-09-18T01:50:16.103Z,2.92
2023-09-18T01:52:43.338Z,3.10
2023-09-18T01:55:10.924Z,2.88
2023-09-18T01:57:38.185Z,3.25
2023-09-18T02:00:09.520Z,2.90
2023-09-18T02:02:50.083Z,3.08
2023-09-18T02:05:25.225Z,2.97
2023-09-18T02:07:52.749Z,3.53
2023-09-18T02:10:20.951Z,3.13
2023-09-18T02:12:48.369Z,3.03
2023-09-18T02:15:17.781Z,3.10
2023-09-18T02:17:45.333Z,3.00
2023-09-18T02:20:13.332Z,2.70
2023-09-18T02:22:40.979Z,3.08
2023-09-18T02:25:08.715Z,2.65
2023-09-18T02:27:35.912Z,2.92
2023-09-18T02:30:03.141Z,2.85
2023-09-18T02:32:31.134Z,3.15
2023-09-18T02:34:58.538Z,3.07
2023-09-18T02:37:26.819Z,2.70
2023-09-18T02:39:53.992Z,2.97
2023-09-18T02:42:21.258Z,2.85
2023-09-18T02:44:48.586Z,2.90
2023-09-18T02:47:15.857Z,3.03
2023-09-18T02:49:43.077Z,2.97
2023-09-18T02:52:10.274Z,3.03
2023-09-18T02:54:37.617Z,2.90
2023-09-18T02:57:04.886Z,2.70
2023-09-18T02:59:33.236Z,3.20
2023-09-18T03:02:00.673Z,2.83
2023-09-18T03:04:28.044Z,3.20
2023-09-18T03:06:55.816Z,2.67
2023-09-18T03:09:23.000Z,2.83
2023-09-18T03:11:50.255Z,2.50
2023-09-18T03:14:17.589Z,2.60
2023-09-18T03:16:45.391Z,2.70
2023-09-18T03:19:12.645Z,2.88
2023-09-18T03:21:39.868Z,2.70
2023-09-18T03:24:07.374Z,2.53
2023-09-18T03:26:34.669Z,2.72
2023-09-18T03:29:05.085Z,2.97
2023-09-18T03:31:32.375Z,2.70
2023-09-18T03:33:59.605Z,2.85
2023-09-18T03:36:26.791Z,2.95
2023-09-18T03:38:54.269Z,2.55
2023-09-18T03:41:22.224Z,2.70
2023-09-18T03:43:50.339Z,2.75
2023-09-18T03:46:17.605Z,3.00
2023-09-18T03:48:44.885Z,2.70
2023-09-18T03:51:16.781Z,2.92
2023-09-18T03:53:44.160Z,2.38
2023-09-18T03:56:11.472Z,2.92
2023-09-18T03:58:38.791Z,2.63
2023-09-18T04:01:06.177Z,2.65
2023-09-18T04:03:33.749Z,2.70
2023-09-18T04:06:00.996Z,2.90
2023-09-18T04:08:28.316Z,3.05
2023-09-18T04:10:57.050Z,3.20
2023-09-18T04:13:24.277Z,2.55
2023-09-18T04:15:52.844Z,3.00
2023-09-18T04:18:20.161Z,2.85
2023-09-18T04:20:47.401Z,2.88
2023-09-18T04:23:25.869Z,2.80
2023-09-18T04:25:54.707Z,2.67
2023-09-18T04:28:23.492Z,2.85
2023-09-18T04:30:50.782Z,3.10
2023-09-18T04:33:18.748Z,2.53
2023-09-18T04:35:46.517Z,2.73
2023-09-18T04:38:16.422Z,2.70
2023-09-18T04:40:43.875Z,2.85
2023-09-18T04:43:11.107Z,2.72
2023-09-18T04:45:38.308Z,2.83
2023-09-18T04:48:07.016Z,3.10
2023-09-18T04:50:35.229Z,3.10
2023-09-18T04:53:02.828Z,4.38
2023-09-18T04:55:30.080Z,4.40
2023-09-18T04:57:59.159Z,4.15
2023-09-18T05:00:27.428Z,4.93
2023-09-18T05:02:55.193Z,4.72
2023-09-18T05:05:22.741Z,5.22
2023-09-18T05:07:50.025Z,5.57
2023-09-18T05:10:17.659Z,5.90
2023-09-18T05:12:44.862Z,4.97
2023-09-18T05:15:13.914Z,5.38
2023-09-18T05:20:15.203Z,5.45
2023-09-18T05:22:43.232Z,5.20
2023-09-18T05:25:11.369Z,5.57
2023-09-18T05:27:45.606Z,5.50
2023-09-18T05:30:16.057Z,5.32
2023-09-18T05:32:44.648Z,5.18
2023-09-18T05:35:13.868Z,4.50
2023-09-18T05:37:45.073Z,5.40
2023-09-18T05:40:14.389Z,4.90
2023-09-18T05:42:45.097Z,4.93
2023-09-18T05:45:13.395Z,4.80
2023-09-18T05:47:41.071Z,5.57
2023-09-18T05:50:09.818Z,4.93
2023-09-18T05:52:37.291Z,4.80
2023-09-18T05:55:07.556Z,5.07
2023-09-18T05:57:38.087Z,4.72
2023-09-18T06:00:06.319Z,5.03
2023-09-18T06:02:33.747Z,4.87
2023-09-18T06:05:02.227Z,5.30
2023-09-18T06:07:29.854Z,5.22
2023-09-18T06:09:58.347Z,4.75
2023-09-18T06:12:26.039Z,5.15
2023-09-18T06:14:53.296Z,5.03
2023-09-18T06:17:20.608Z,5.40
2023-09-18T06:19:47.933Z,5.55
2023-09-18T06:22:15.714Z,4.97
2023-09-18T06:24:43.373Z,5.07
2023-09-18T06:27:12.152Z,4.75
2023-09-18T06:29:40.248Z,4.53
2023-09-18T06:32:07.847Z,5.30
2023-09-18T06:34:35.412Z,5.18
2023-09-18T06:37:04.578Z,5.70
2023-09-18T06:39:31.901Z,5.20
2023-09-18T06:41:59.143Z,5.50
2023-09-18T06:44:26.394Z,5.03
2023-09-18T06:46:54.613Z,5.35
2023-09-18T06:49:21.869Z,4.87
2023-09-18T06:51:49.111Z,4.68
2023-09-18T06:54:16.395Z,4.82
2023-09-18T06:56:45.568Z,4.63
2023-09-18T06:59:13.246Z,4.78
2023-09-18T07:01:42.939Z,4.20
2023-09-18T07:04:10.502Z,4.60
2023-09-18T07:06:38.253Z,4.45
2023-09-18T07:09:07.895Z,4.18
2023-09-18T07:11:35.883Z,4.55
2023-09-18T07:14:07.169Z,4.43
2023-09-18T07:16:35.264Z,4.80
2023-09-18T07:19:05.737Z,4.82
2023-09-18T07:21:33.215Z,4.40
2023-09-18T07:24:00.560Z,3.90
2023-09-18T07:26:27.827Z,4.15
2023-09-18T07:28:55.620Z,4.30
2023-09-18T07:31:23.100Z,4.43
2023-09-18T07:33:50.413Z,4.10
2023-09-18T07:36:17.668Z,4.30
2023-09-18T07:38:44.953Z,4.07
2023-09-18T07:41:12.748Z,4.72
2023-09-18T07:43:41.069Z,4.25
2023-09-18T07:46:08.341Z,3.97
2023-09-18T07:48:36.242Z,4.38
2023-09-18T07:51:03.592Z,3.88
2023-09-18T07:53:30.925Z,4.30
2023-09-18T07:56:00.184Z,4.30
2023-09-18T07:58:29.248Z,3.50
2023-09-18T08:00:59.982Z,4.22
2023-09-18T08:03:27.880Z,3.83
2023-09-18T08:05:55.177Z,3.58
2023-09-18T08:08:24.591Z,3.78
2023-09-18T08:10:52.376Z,4.25
2023-09-18T08:13:20.884Z,3.60
2023-09-18T08:15:48.399Z,4.00
2023-09-18T08:18:18.636Z,4.00
2023-09-18T08:20:46.500Z,3.60
2023-09-18T08:23:14.049Z,4.40
2023-09-18T08:25:41.851Z,3.72
2023-09-18T08:28:10.133Z,3.60
2023-09-18T08:30:38.723Z,4.10
2023-09-18T08:33:06.356Z,3.78
2023-09-18T08:35:34.125Z,4.30
2023-09-18T08:38:01.762Z,3.95
2023-09-18T08:40:29.129Z,3.85
2023-09-18T08:42:57.714Z,3.22
2023-09-18T08:45:29.036Z,3.50
2023-09-18T08:47:56.888Z,3.70
2023-09-18T08:50:26.044Z,3.70
2023-09-18T08:52:53.743Z,3.13
2023-09-18T08:55:21.178Z,3.25
2023-09-18T08:57:48.785Z,3.22
2023-09-18T09:00:18.449Z,3.60
2023-09-18T09:02:46.278Z,3.30
2023-09-18T09:05:15.013Z,3.10
2023-09-18T09:07:42.271Z,3.08
2023-09-18T09:10:09.576Z,3.30
2023-09-18T09:12:55.787Z,2.65
2023-09-18T09:15:47.518Z,3.10
2023-09-18T09:18:18.080Z,2.65
2023-09-18T09:21:00.606Z,2.90
2023-09-18T09:23:29.141Z,3.35
2023-09-18T09:26:14.957Z,2.97
2023-09-18T09:28:44.326Z,2.92
2023-09-18T09:31:12.170Z,2.90
2023-09-18T09:33:40.536Z,2.85
2023-09-18T09:36:07.957Z,2.72
2023-09-18T09:38:35.934Z,4.78
2023-09-18T09:41:03.783Z,4.00
2023-09-18T09:43:33.561Z,3.78
2023-09-18T09:46:01.520Z,3.58
2023-09-18T09:48:31.648Z,4.23
2023-09-18T09:51:04.285Z,3.25
2023-09-18T09:53:52.090Z,3.88
2023-09-18T09:56:20.396Z,4.10
2023-09-18T09:59:03.393Z,3.80
2023-09-18T10:01:32.453Z,3.75
2023-09-18T10:04:01.570Z,4.18
2023-09-18T10:06:31.266Z,3.58
2023-09-18T10:08:58.592Z,3.80
2023-09-18T10:11:27.968Z,3.65
2023-09-18T10:14:01.729Z,3.80
2023-09-18T10:16:32.572Z,3.75
2023-09-18T10:19:15.907Z,3.78
2023-09-18T10:21:49.308Z,3.78
2023-09-18T10:24:25.203Z,4.10
2023-09-18T10:26:57.201Z,3.70
2023-09-18T10:29:25.414Z,3.90
2023-09-18T10:31:54.791Z,3.58
2023-09-18T10:34:23.546Z,3.90
2023-09-18T10:36:52.899Z,3.83
2023-09-18T10:39:24.590Z,3.80
2023-09-18T10:41:54.576Z,3.80
2023-09-18T10:44:21.999Z,4.20
2023-09-18T10:46:50.659Z,4.45
2023-09-18T10:49:18.600Z,4.40
2023-09-18T10:51:46.974Z,4.20
2023-09-18T10:54:21.290Z,3.90
2023-09-18T10:56:49.141Z,3.72
2023-09-18T10:59:18.266Z,3.70
2023-09-18T11:01:47.721Z,4.05
2023-09-18T11:04:15.931Z,3.80
2023-09-18T11:06:55.592Z,3.58
2023-09-18T11:09:27.600Z,3.97
2023-09-18T11:12:05.317Z,3.40
2023-09-18T11:14:59.286Z,3.10
2023-09-18T11:17:37.567Z,3.42
2023-09-18T11:20:18.613Z,3.45
2023-09-18T11:23:19.525Z,3.33
2023-09-18T11:25:48.583Z,3.58
2023-09-18T11:28:26.499Z,2.92
2023-09-18T11:31:02.456Z,3.27
2023-09-18T11:33:34.142Z,3.25
2023-09-18T11:36:13.605Z,3.35
2023-09-18T11:38:59.729Z,3.20
2023-09-18T11:41:29.357Z,2.90
2023-09-18T11:44:18.129Z,3.53
2023-09-18T11:49:23.772Z,3.58
2023-09-18T11:51:52.325Z,3.13
2023-09-18T11:54:20.283Z,3.15
2023-09-18T11:56:47.604Z,3.27
2023-09-18T11:59:14.841Z,2.95
2023-09-18T12:01:42.158Z,3.40
2023-09-18T12:04:10.244Z,3.58
2023-09-18T12:06:39.261Z,3.47
2023-09-18T12:11:43.123Z,3.58
2023-09-18T12:14:10.523Z,3.47
2023-09-18T12:16:41.276Z,3.47
2023-09-18T12:19:09.342Z,3.80
2023-09-18T12:21:43.564Z,3.05
2023-09-18T12:24:26.248Z,3.33
2023-09-18T12:26:54.742Z,3.03
2023-09-18T12:29:22.465Z,3.35
2023-09-18T12:31:51.442Z,3.70
2023-09-18T12:34:27.001Z,3.28
2023-09-18T12:36:54.222Z,3.47
2023-09-18T12:39:22.759Z,3.47
2023-09-18T12:41:50.529Z,3.80
2023-09-18T12:44:18.368Z,3.38
2023-09-18T12:46:46.172Z,3.03
2023-09-18T12:49:21.055Z,3.20
2023-09-18T12:52:07.681Z,3.22
2023-09-18T12:54:57.236Z,3.25
2023-09-18T12:57:24.441Z,3.10
2023-09-18T12:59:53.384Z,3.05
2023-09-18T13:02:20.862Z,3.65
2023-09-18T13:04:56.028Z,3.85
2023-09-18T13:07:24.564Z,3.35
2023-09-18T13:10:01.896Z,3.70
2023-09-18T13:12:42.196Z,3.60
2023-09-18T13:15:10.056Z,4.35
2023-09-18T13:17:48.686Z,3.60
2023-09-18T13:20:18.246Z,3.25
2023-09-18T13:22:50.381Z,3.75
2023-09-18T13:25:32.122Z,3.53
2023-09-18T13:27:59.388Z,3.50
2023-09-18T13:30:26.648Z,3.22
2023-09-18T13:33:09.641Z,3.42
2023-09-18T13:35:41.713Z,3.50
2023-09-18T13:38:09.892Z,3.42
2023-09-18T13:40:38.339Z,3.70
2023-09-18T13:43:10.158Z,3.13
2023-09-18T13:45:37.655Z,3.60
2023-09-18T13:48:07.901Z,3.10
2023-09-18T13:50:36.463Z,3.17
2023-09-18T13:53:05.128Z,3.30
2023-09-18T13:55:33.099Z,2.97
2023-09-18T13:58:00.721Z,3.83
2023-09-18T14:00:27.962Z,3.40
2023-09-18T14:02:55.425Z,2.80
2023-09-18T14:05:23.169Z,2.50
2023-09-18T14:07:50.728Z,3.60
2023-09-18T14:10:19.405Z,2.63
2023-09-18T14:12:47.175Z,2.83
2023-09-18T14:15:15.058Z,3.15
2023-09-18T14:17:42.357Z,3.15
2023-09-18T14:20:10.037Z,2.78
2023-09-18T14:22:37.551Z,3.13
2023-09-18T14:25:07.416Z,2.60
2023-09-18T14:27:36.208Z,2.80
2023-09-18T14:30:07.468Z,2.60
2023-09-18T14:32:37.683Z,2.20
2023-09-18T14:35:09.238Z,3.13
2023-09-18T14:37:37.431Z,2.80
2023-09-18T14:40:05.290Z,2.58
2023-09-18T14:42:32.748Z,2.92
2023-09-18T14:45:02.213Z,2.83
2023-09-18T14:47:30.776Z,2.53
2023-09-18T14:50:00.005Z,2.72
2023-09-18T14:52:27.423Z,2.40
2023-09-18T14:54:54.792Z,2.40
2023-09-18T14:57:22.276Z,2.60
2023-09-18T14:59:49.950Z,2.55
2023-09-18T15:02:18.955Z,2.50
2023-09-18T15:07:14.044Z,2.60
2023-09-18T15:09:41.452Z,2.95
2023-09-18T15:12:09.856Z,2.83
2023-09-18T15:14:37.743Z,3.20
2023-09-18T15:17:05.264Z,2.63
2023-09-18T15:19:33.051Z,2.67
2023-09-18T15:22:02.391Z,2.67
2023-09-18T15:24:29.629Z,3.45
2023-09-18T15:26:57.965Z,2.85
2023-09-18T15:29:25.261Z,2.60
2023-09-18T15:31:52.581Z,3.78
2023-09-18T15:34:19.952Z,2.67
2023-09-18T15:36:47.258Z,3.28
2023-09-18T15:39:14.502Z,4.07
2023-09-18T15:41:41.928Z,3.20
2023-09-18T15:44:11.435Z,2.90
2023-09-18T15:46:38.785Z,3.00
2023-09-18T15:49:06.045Z,3.30
2023-09-18T15:51:33.688Z,3.38
2023-09-18T15:54:00.962Z,3.10
2023-09-18T15:56:28.251Z,3.30
2023-09-18T15:58:55.518Z,2.75
2023-09-18T16:01:22.778Z,3.63
2023-09-18T16:03:50.839Z,3.47
2023-09-18T16:06:19.391Z,3.77
2023-09-18T16:08:47.008Z,3.45
2023-09-18T16:11:16.391Z,3.40
2023-09-18T16:13:43.732Z,4.20
2023-09-18T16:16:11.161Z,3.75
2023-09-18T16:18:38.616Z,3.60
2023-09-18T16:21:06.709Z,4.22
2023-09-18T16:23:34.418Z,4.03
2023-09-18T16:26:01.687Z,3.95
2023-09-18T16:28:28.898Z,3.60
2023-09-18T16:30:56.141Z,3.55
2023-09-18T16:33:23.505Z,3.90
2023-09-18T16:35:51.001Z,4.28
2023-09-18T16:38:18.311Z,4.03
2023-09-18T16:40:45.559Z,3.90
2023-09-18T16:43:12.839Z,3.92
2023-09-18T16:45:43.434Z,3.42
2023-09-18T16:48:12.268Z,3.67
2023-09-18T16:53:07.083Z,3.92
2023-09-18T16:55:34.323Z,3.80
2023-09-18T16:58:01.606Z,3.75
2023-09-18T17:00:29.263Z,3.97
2023-09-18T17:02:56.571Z,4.00
2023-09-18T17:05:23.940Z,3.80
2023-09-18T17:07:51.315Z,3.63
2023-09-18T17:10:18.687Z,4.03
2023-09-18T17:12:46.306Z,3.47
2023-09-18T17:15:13.571Z,3.47
2023-09-18T17:17:40.909Z,3.03
2023-09-18T17:20:09.598Z,3.05
2023-09-18T17:22:37.224Z,3.25
2023-09-18T17:25:06.579Z,3.28
2023-09-18T17:27:34.634Z,3.50
2023-09-18T17:30:02.565Z,3.50
2023-09-18T17:32:29.812Z,3.15
2023-09-18T17:34:57.042Z,3.38
2023-09-18T17:37:26.625Z,3.70
2023-09-18T17:39:54.112Z,3.58
2023-09-18T17:42:21.391Z,3.92
2023-09-18T17:44:49.054Z,4.28
2023-09-18T17:47:22.623Z,3.70
2023-09-18T17:49:50.387Z,3.88
2023-09-18T17:52:17.656Z,3.50
2023-09-18T17:54:44.902Z,4.15
2023-09-18T17:57:12.095Z,3.85
2023-09-18T17:59:39.806Z,4.10
2023-09-18T18:02:08.053Z,3.75
2023-09-18T18:04:37.224Z,4.03
2023-09-18T18:07:04.888Z,2.80
2023-09-18T18:09:32.221Z,3.17
2023-09-18T18:11:59.427Z,3.55
2023-09-18T18:14:28.711Z,3.13
2023-09-18T18:16:57.606Z,2.95
2023-09-18T18:19:24.894Z,2.80
2023-09-18T18:21:52.153Z,3.58
2023-09-18T18:24:19.362Z,2.58
2023-09-18T18:26:46.639Z,2.85
2023-09-18T18:29:13.875Z,2.95
2023-09-18T18:31:41.191Z,3.33
2023-09-18T18:34:08.450Z,2.80
2023-09-18T18:36:39.180Z,3.38
2023-09-18T18:39:06.634Z,3.10
2023-09-18T18:41:34.868Z,2.85
2023-09-18T18:44:02.194Z,3.30
2023-09-18T18:46:29.462Z,2.90
2023-09-18T18:48:56.684Z,2.95
2023-09-18T18:51:24.321Z,2.75
2023-09-18T18:53:52.003Z,2.75
2023-09-18T18:56:19.916Z,2.50
2023-09-18T18:58:49.760Z,2.80
2023-09-18T19:01:24.669Z,3.25
2023-09-18T19:03:54.579Z,2.70
2023-09-18T19:06:22.132Z,2.50
2023-09-18T19:08:49.445Z,2.58
2023-09-18T19:11:16.952Z,3.25
2023-09-18T19:13:44.842Z,2.72
2023-09-18T19:16:12.815Z,2.53
2023-09-18T19:18:41.106Z,2.42
2023-09-18T19:21:12.272Z,2.45
2023-09-18T19:23:40.496Z,2.97
2023-09-18T19:26:09.416Z,2.75
2023-09-18T19:28:36.973Z,2.88
2023-09-18T19:31:07.404Z,2.60
2023-09-18T19:33:39.532Z,2.60
2023-09-18T19:36:07.885Z,2.70
2023-09-18T19:38:37.570Z,3.05
2023-09-18T19:41:05.432Z,2.70
2023-09-18T19:43:33.175Z,2.60
2023-09-18T19:46:01.046Z,3.00
2023-09-18T19:48:29.241Z,2.75
2023-09-18T19:51:02.888Z,2.80
2023-09-18T19:53:30.276Z,2.30
2023-09-18T19:55:58.146Z,2.30
2023-09-18T19:58:25.724Z,2.67
2023-09-18T20:00:55.969Z,2.78
2023-09-18T20:03:24.198Z,2.78
2023-09-18T20:05:51.535Z,2.78
2023-09-18T20:08:20.716Z,2.78
2023-09-18T20:10:47.919Z,2.58
2023-09-18T20:13:15.108Z,2.90
2023-09-18T20:15:42.431Z,2.75
2023-09-18T20:18:09.767Z,2.15
2023-09-18T20:20:37.814Z,2.30
2023-09-18T20:23:05.162Z,2.22
2023-09-18T20:25:32.358Z,2.75
2023-09-18T20:27:59.621Z,2.80
2023-09-18T20:30:26.909Z,2.97
2023-09-18T20:32:54.204Z,2.78
2023-09-18T20:35:21.979Z,2.63
2023-09-18T20:37:49.549Z,2.35
2023-09-18T20:40:16.797Z,2.50
2023-09-18T20:42:44.197Z,2.40
2023-09-18T20:45:11.754Z,2.75
2023-09-18T20:47:39.392Z,2.42
2023-09-18T20:50:08.026Z,2.67
2023-09-18T20:52:37.735Z,2.30
2023-09-18T20:55:05.987Z,2.38
2023-09-18T20:57:33.241Z,2.58
2023-09-18T21:00:00.849Z,2.28
2023-09-18T21:02:28.162Z,2.63
2023-09-18T21:04:55.438Z,2.20
2023-09-18T21:07:22.646Z,2.47
2023-09-18T21:09:51.104Z,2.58
2023-09-18T21:12:21.781Z,2.78
2023-09-18T21:14:49.021Z,2.40
2023-09-18T21:17:16.380Z,2.38
2023-09-18T21:19:44.773Z,2.30
2023-09-18T21:22:12.134Z,2.60
2023-09-18T21:24:39.847Z,2.45
2023-09-18T21:27:07.782Z,2.33
2023-09-18T21:29:35.167Z,2.42
2023-09-18T21:32:04.665Z,2.25
2023-09-18T21:34:34.581Z,2.47
2023-09-18T21:37:01.816Z,2.45
2023-09-18T21:39:29.035Z,2.35
2023-09-18T21:41:56.381Z,2.53
2023-09-18T21:44:23.609Z,2.67
2023-09-18T21:46:50.805Z,1.90
2023-09-18T21:49:20.867Z,2.47
2023-09-18T21:51:48.052Z,2.10
2023-09-18T21:54:15.226Z,2.10
2023-09-18T21:56:42.507Z,2.17
2023-09-18T21:59:09.902Z,2.30
2023-09-18T22:01:38.770Z,2.63
2023-09-18T22:04:07.327Z,2.08
2023-09-18T22:06:34.872Z,2.20
2023-09-18T22:09:02.192Z,2.78
2023-09-18T22:11:32.357Z,2.20
2023-09-18T22:13:59.554Z,1.95
2023-09-18T22:16:26.777Z,1.73
2023-09-18T22:18:54.019Z,1.95
2023-09-18T22:21:23.634Z,2.03
2023-09-18T22:23:50.935Z,1.63
2023-09-18T22:26:18.160Z,1.67
2023-09-18T22:28:45.503Z,1.80
2023-09-18T22:31:19.952Z,1.33
2023-09-18T22:33:48.012Z,1.60
2023-09-18T22:36:25.415Z,1.75
2023-09-18T22:39:29.351Z,1.20
2023-09-18T22:41:56.747Z,1.40
2023-09-18T22:45:01.482Z,1.83
2023-09-18T22:48:06.126Z,1.63
2023-09-18T22:51:10.762Z,1.52
2023-09-18T22:53:37.897Z,1.55
2023-09-18T22:56:06.283Z,1.70
2023-09-18T22:58:33.534Z,1.73
2023-09-18T23:01:03.742Z,1.27
2023-09-18T23:03:31.500Z,1.75
2023-09-18T23:06:02.003Z,1.60
2023-09-18T23:08:30.024Z,1.30
2023-09-18T23:10:59.811Z,1.50
2023-09-18T23:13:29.421Z,1.38
2023-09-18T23:15:56.693Z,1.33
2023-09-18T23:18:24.110Z,1.30
2023-09-18T23:20:52.189Z,1.40
2023-09-18T23:23:19.408Z,1.63
2023-09-18T23:25:46.661Z,1.60
2023-09-18T23:28:16.262Z,1.45
2023-09-18T23:30:43.838Z,1.30
2023-09-18T23:33:15.749Z,1.55
2023-09-18T23:35:44.218Z,1.35
2023-09-18T23:38:11.699Z,1.20
2023-09-18T23:40:40.494Z,1.30
2023-09-18T23:43:09.887Z,1.27
2023-09-18T23:45:39.399Z,1.33
2023-09-18T23:48:14.601Z,1.42
2023-09-18T23:50:48.958Z,0.93
2023-09-18T23:53:20.414Z,1.20
2023-09-18T23:55:49.163Z,1.30
2023-09-18T23:58:17.853Z,1.10
